Time;durP1;ratioP1;P1;durP2;ratioP2;P2;SDS_P1;SDS_P2;PMS_P1;PMS_P2;Temp;Humidity;BMP_temperature;BMP_pressure;BME280_temperature;BME280_humidity;BME280_pressure;Samples;Min_cycle;Max_cycle;Signal;HPM_P1;HPM_P2
2022/07/30 00:00:29;;;;;;;6.72;3.90;;;17.80;99.90;;;-144.05;62.70;125687.94;4977116;28;20023;-89
2022/07/30 00:02:55;;;;;;;8.75;4.00;;;17.80;99.90;;;-144.05;62.84;125687.94;4977348;28;20031;-87
2022/07/30 00:05:21;;;;;;;6.88;3.83;;;17.70;99.90;;;-144.05;63.38;125687.94;4973984;28;20031;-88
2022/07/30 00:07:47;;;;;;;8.65;3.97;;;17.60;99.90;;;-144.05;63.91;125687.94;4972853;28;20027;-88
2022/07/30 00:10:14;;;;;;;5.47;4.20;;;17.50;99.90;;;-144.05;64.37;125687.94;4973439;28;20038;-89
2022/07/30 00:12:40;;;;;;;7.53;4.57;;;17.40;99.90;;;-144.05;64.77;125687.94;4958736;28;20052;-89
2022/07/30 00:15:07;;;;;;;5.68;3.97;;;17.30;99.90;;;-144.05;65.34;125687.94;4973908;28;20126;-88
2022/07/30 00:17:33;;;;;;;6.65;3.97;;;17.20;99.90;;;-144.05;66.02;125687.94;4957977;28;20031;-87
2022/07/30 00:19:59;;;;;;;8.35;4.53;;;17.10;99.90;;;-144.05;66.38;125687.94;4974692;28;20049;-88
2022/07/30 00:22:25;;;;;;;6.85;4.43;;;17.00;99.90;;;-144.05;67.00;125687.94;4959627;29;20098;-87
2022/07/30 00:24:51;;;;;;;9.27;5.13;;;16.90;99.90;;;-144.05;67.27;125687.94;4974403;28;20412;-89
2022/07/30 00:27:17;;;;;;;9.55;4.57;;;16.80;99.90;;;-144.05;67.34;125687.94;4975146;28;20035;-90
2022/07/30 00:29:43;;;;;;;8.73;5.03;;;16.70;99.90;;;-144.05;67.63;125687.94;4974503;28;20383;-87
2022/07/30 00:32:09;;;;;;;8.13;4.95;;;16.70;99.90;;;-144.05;67.98;125687.94;4975209;28;20024;-89
2022/07/30 00:34:35;;;;;;;8.40;5.18;;;16.60;99.90;;;-144.05;68.33;125687.94;4974644;28;20051;-87
2022/07/30 00:37:01;;;;;;;10.70;5.63;;;16.50;99.90;;;-144.05;68.76;125687.94;4973714;28;20417;-91
2022/07/30 00:39:29;;;;;;;8.10;5.38;;;16.40;99.90;;;-144.05;69.19;125687.94;4958685;29;20108;-89
2022/07/30 00:42:02;;;;;;;9.85;5.15;;;16.40;99.90;;;-144.05;69.48;125687.94;4977367;28;20059;-89
2022/07/30 00:44:32;;;;;;;7.35;5.28;;;16.30;99.90;;;-144.05;69.88;125687.94;4977257;28;20027;-86
2022/07/30 00:46:58;;;;;;;7.75;4.82;;;16.20;99.90;;;-144.05;70.14;125687.94;4974377;28;20409;-89
2022/07/30 00:49:24;;;;;;;9.55;5.40;;;16.10;99.90;;;-144.05;70.85;125687.94;4973972;28;20035;-88
2022/07/30 00:51:51;;;;;;;9.18;5.07;;;16.00;99.90;;;-144.05;71.61;125687.94;4980485;28;20126;-89
2022/07/30 00:54:17;;;;;;;6.53;5.15;;;16.00;99.90;;;-144.05;72.12;125687.94;4961887;29;20027;-89
2022/07/30 00:56:44;;;;;;;9.35;5.00;;;15.90;99.90;;;-144.05;72.36;125687.94;4976774;28;20065;-88
2022/07/30 00:59:10;;;;;;;10.25;5.53;;;15.80;99.90;;;-144.05;72.79;125687.94;4967307;28;20091;-88
2022/07/30 01:01:36;;;;;;;8.80;5.47;;;15.80;99.90;;;-144.05;72.91;125687.94;4993153;28;20050;-88
2022/07/30 01:04:02;;;;;;;7.22;5.03;;;15.70;99.90;;;-144.05;73.46;125687.94;4982161;28;20081;-88
2022/07/30 01:06:28;;;;;;;9.65;5.53;;;15.70;99.90;;;-144.05;73.58;125687.94;4977086;28;20027;-87
2022/07/30 01:08:54;;;;;;;7.78;4.95;;;15.70;99.90;;;-144.05;73.72;125687.94;4975397;28;20035;-89
2022/07/30 01:11:34;;;;;;;7.55;5.70;;;15.60;99.90;;;-144.05;73.82;125687.94;4960943;29;20027;-87
2022/07/30 01:14:01;;;;;;;7.93;5.93;;;15.60;99.90;;;-144.05;73.92;125687.94;4976811;28;20128;-88
2022/07/30 01:16:28;;;;;;;8.25;6.35;;;15.60;99.90;;;-144.05;74.14;125687.94;4974566;28;20035;-89
2022/07/30 01:21:59;;;;;;;10.63;6.05;;;15.60;99.90;;;-144.05;74.41;125687.94;4959847;29;20090;-89
2022/07/30 01:24:45;;;;;;;10.27;6.40;;;15.60;99.90;;;-144.05;74.13;125687.94;4975606;28;20031;-87
2022/07/30 01:27:16;;;;;;;9.15;6.25;;;15.60;99.90;;;-144.05;74.46;125687.94;4974930;28;20084;-86
2022/07/30 01:29:45;;;;;;;8.88;6.72;;;15.60;99.90;;;-144.05;74.58;125687.94;4977211;28;20039;-87
2022/07/30 01:32:15;;;;;;;14.07;6.13;;;15.60;99.90;;;-144.05;74.22;125687.94;4978816;28;20082;-88
2022/07/30 01:34:44;;;;;;;7.90;5.38;;;15.60;99.90;;;-144.05;74.32;125687.94;4961806;28;20027;-89
2022/07/30 01:37:16;;;;;;;9.35;5.97;;;15.60;99.90;;;-144.05;74.25;125687.94;4977903;28;20027;-87
2022/07/30 01:39:43;;;;;;;11.32;6.45;;;15.50;99.90;;;-144.05;74.27;125687.94;4963247;28;20053;-87
2022/07/30 01:42:13;;;;;;;10.60;6.30;;;15.50;99.90;;;-144.05;74.26;125687.94;4978676;28;20038;-88
2022/07/30 01:44:43;;;;;;;8.38;5.90;;;15.40;99.90;;;-144.05;74.42;125687.94;4978273;28;20031;-88
2022/07/30 01:47:13;;;;;;;8.88;5.60;;;15.40;99.90;;;-144.05;74.72;125687.94;4978169;28;20051;-88
2022/07/30 01:49:41;;;;;;;11.93;5.68;;;15.40;99.90;;;-144.05;74.95;125687.94;4978732;28;20401;-87
2022/07/30 01:52:09;;;;;;;10.77;6.20;;;15.30;99.90;;;-144.05;75.20;125687.94;4978447;28;20031;-89
2022/07/30 01:54:39;;;;;;;9.52;6.18;;;15.20;99.90;;;-144.05;75.70;125687.94;4978598;28;20129;-87
2022/07/30 01:57:08;;;;;;;8.40;5.07;;;15.10;99.90;;;-144.05;75.94;125687.94;4978779;28;20028;-87
2022/07/30 01:59:40;;;;;;;10.55;6.28;;;15.00;99.90;;;-144.05;76.39;125687.94;4978749;28;20113;-90
2022/07/30 02:02:06;;;;;;;8.50;6.20;;;14.90;99.90;;;-144.05;76.82;125687.94;4978466;28;20044;-89
2022/07/30 02:04:33;;;;;;;13.25;7.57;;;14.90;99.90;;;-144.05;77.25;125687.94;4978661;28;20038;-87
2022/07/30 02:07:15;;;;;;;14.15;7.47;;;14.80;99.90;;;-144.05;77.84;125687.94;4979206;28;20041;-89
2022/07/30 02:09:59;;;;;;;12.05;7.50;;;14.80;99.90;;;-144.05;78.16;125687.94;4979795;28;20038;-88
2022/07/30 02:12:28;;;;;;;9.98;7.35;;;14.80;99.90;;;-144.05;78.80;125687.94;4981088;28;20023;-89
2022/07/30 02:15:14;;;;;;;9.18;7.57;;;14.80;99.90;;;-144.05;79.15;125687.94;4983181;28;20051;-91
2022/07/30 02:18:02;;;;;;;10.98;7.55;;;14.80;99.90;;;-144.05;78.86;125687.94;4989634;28;20465;-90
2022/07/30 02:20:33;;;;;;;12.48;8.18;;;14.80;99.90;;;-144.05;79.05;125687.94;4977994;28;20058;-88
2022/07/30 02:23:11;;;;;;;10.13;7.22;;;14.90;99.90;;;-144.05;78.78;125687.94;4978104;28;20038;-87
2022/07/30 02:25:50;;;;;;;13.10;7.22;;;14.90;99.90;;;-144.05;78.76;125687.94;4977191;28;20034;-87
2022/07/30 02:28:21;;;;;;;9.77;7.85;;;14.90;99.90;;;-144.05;78.41;125687.94;4977263;28;20122;-90
2022/07/30 02:30:55;;;;;;;10.23;6.78;;;14.90;99.90;;;-144.05;78.18;125687.94;4977011;28;20027;-88
2022/07/30 02:33:29;;;;;;;9.25;6.95;;;14.90;99.90;;;-144.05;78.35;125687.94;4976858;28;20134;-87
2022/07/30 02:35:58;;;;;;;10.15;7.72;;;14.80;99.90;;;-144.05;78.61;125687.94;4976204;28;20477;-89
2022/07/30 02:38:27;;;;;;;10.63;7.53;;;14.80;99.90;;;-144.05;78.82;125687.94;4975746;28;20066;-89
2022/07/30 02:41:01;;;;;;;10.05;7.22;;;14.80;99.90;;;-144.05;79.03;125687.94;4959372;28;20039;-88
2022/07/30 02:43:33;;;;;;;8.63;6.97;;;14.70;99.90;;;-144.05;78.90;125687.94;4976660;28;20035;-88
2022/07/30 02:46:01;;;;;;;10.43;7.10;;;14.70;99.90;;;-144.05;79.22;125687.94;4976584;28;20106;-88
2022/07/30 02:48:30;;;;;;;10.77;7.78;;;14.70;99.90;;;-144.05;79.27;125687.94;4976433;28;20034;-87
2022/07/30 02:50:59;;;;;;;12.73;7.13;;;14.60;99.90;;;-144.05;79.23;125687.94;4977052;28;20031;-87
2022/07/30 02:53:28;;;;;;;7.55;6.30;;;14.60;99.90;;;-144.05;79.22;125687.94;4977779;28;20027;-89
2022/07/30 02:55:56;;;;;;;10.02;6.50;;;14.60;99.90;;;-144.05;79.27;125687.94;4977466;28;20024;-89
2022/07/30 02:58:27;;;;;;;9.30;6.70;;;14.50;99.90;;;-144.05;79.47;125687.94;4976915;28;20114;-88
2022/07/30 03:00:56;;;;;;;10.55;7.10;;;14.50;99.90;;;-144.05;79.54;125687.94;4976875;28;20034;-88
2022/07/30 03:03:28;;;;;;;8.27;7.00;;;14.40;99.90;;;-144.05;80.02;125687.94;4977175;28;20059;-88
2022/07/30 03:05:57;;;;;;;11.45;7.68;;;14.40;99.90;;;-144.05;79.92;125687.94;4976971;28;20051;-87
2022/07/30 03:08:26;;;;;;;10.23;7.50;;;14.40;99.90;;;-144.05;80.45;125687.94;4976764;28;20047;-89
2022/07/30 03:10:56;;;;;;;11.15;7.35;;;14.40;99.90;;;-144.05;80.39;125687.94;4975790;28;20465;-87
2022/07/30 03:13:24;;;;;;;12.18;8.38;;;14.40;99.90;;;-144.05;80.88;125687.94;4978219;28;20186;-88
2022/07/30 03:15:55;;;;;;;11.70;8.52;;;14.40;99.90;;;-144.05;80.82;125687.94;4988756;28;20019;-87
2022/07/30 03:18:23;;;;;;;9.93;7.75;;;14.40;99.90;;;-144.05;80.75;125687.94;4981531;28;20468;-88
2022/07/30 03:20:58;;;;;;;12.48;8.20;;;14.40;99.90;;;-144.05;80.89;125687.94;4977242;28;20038;-89
2022/07/30 03:23:27;;;;;;;10.93;7.90;;;14.40;99.90;;;-144.05;80.82;125687.94;4978405;28;20031;-88
2022/07/30 03:26:04;;;;;;;12.57;8.48;;;14.40;99.90;;;-144.05;81.12;125687.94;4978627;28;20118;-88
2022/07/30 03:28:36;;;;;;;13.05;7.97;;;14.40;99.90;;;-144.05;80.94;125687.94;4978039;28;20038;-88
2022/07/30 03:31:04;;;;;;;8.82;7.85;;;14.40;99.90;;;-144.05;80.71;125687.94;4976913;28;20042;-88
2022/07/30 03:33:32;;;;;;;9.50;7.47;;;14.30;99.90;;;-144.05;80.82;125687.94;4977314;28;20155;-88
2022/07/30 03:35:59;;;;;;;15.65;8.48;;;14.20;99.90;;;-144.05;81.12;125687.94;4977855;28;20130;-88
2022/07/30 03:38:27;;;;;;;12.07;7.53;;;14.20;99.90;;;-144.05;81.25;125687.94;4979100;28;20397;-88
2022/07/30 03:40:57;;;;;;;14.30;7.65;;;14.20;99.90;;;-144.05;81.29;125687.94;4979057;28;20027;-87
2022/07/30 03:43:25;;;;;;;12.07;8.25;;;14.20;99.90;;;-144.05;81.66;125687.94;4978449;28;20034;-89
2022/07/30 03:45:54;;;;;;;11.48;8.20;;;14.20;99.90;;;-144.05;81.38;125687.94;4978931;28;20031;-88
2022/07/30 03:48:23;;;;;;;12.18;8.00;;;14.20;99.90;;;-144.05;81.37;125687.94;4978900;28;20134;-88
2022/07/30 03:50:50;;;;;;;13.85;9.13;;;14.20;99.90;;;-144.05;81.36;125687.94;4978970;28;20031;-89
2022/07/30 03:53:22;;;;;;;12.75;9.30;;;14.20;99.90;;;-144.05;81.74;125687.94;4979372;28;20138;-87
2022/07/30 03:55:50;;;;;;;11.02;7.63;;;14.20;99.90;;;-144.05;81.59;125687.94;4978851;28;20033;-89
2022/07/30 03:58:16;;;;;;;13.68;9.27;;;14.20;99.90;;;-144.05;81.75;125687.94;4978664;28;20126;-87
2022/07/30 04:00:48;;;;;;;17.05;9.15;;;14.20;99.90;;;-144.05;81.59;125687.94;4978678;28;20037;-89
2022/07/30 04:03:30;;;;;;;14.85;10.00;;;14.20;99.90;;;-144.05;81.67;125687.94;4978908;28;20477;-87
2022/07/30 04:05:56;;;;;;;17.05;10.68;;;14.20;99.90;;;-144.05;81.71;125687.94;4977506;28;20545;-87
2022/07/30 04:08:24;;;;;;;14.57;9.38;;;14.20;99.90;;;-144.05;81.46;125687.94;4959423;29;20035;-88
2022/07/30 04:10:51;;;;;;;13.63;10.02;;;14.30;99.90;;;-144.05;81.31;125687.94;4974999;28;20034;-87
2022/07/30 04:13:18;;;;;;;13.20;9.48;;;14.30;99.90;;;-144.05;81.41;125687.94;4958402;29;20071;-86
2022/07/30 04:16:18;;;;;;;15.88;11.40;;;14.40;99.90;;;-144.05;81.22;125687.94;4974505;28;20106;-89
2022/07/30 04:18:54;;;;;;;17.20;10.77;;;14.50;99.90;;;-144.05;81.12;125687.94;4959530;29;20031;-89
2022/07/30 04:21:25;;;;;;;18.20;10.93;;;14.60;99.90;;;-144.05;80.98;125687.94;4960488;29;20031;-89
2022/07/30 04:23:54;;;;;;;15.13;10.57;;;14.60;99.90;;;-144.05;81.21;125687.94;4960671;29;20035;-88
2022/07/30 04:26:22;;;;;;;18.65;9.23;;;14.70;99.90;;;-144.05;80.85;125687.94;4960376;28;20023;-90
2022/07/30 04:28:48;;;;;;;16.65;10.80;;;14.70;99.90;;;-144.05;80.85;125687.94;4977476;28;20034;-90
2022/07/30 04:31:15;;;;;;;17.02;11.23;;;14.70;99.90;;;-144.05;80.80;125687.94;4962044;28;20028;-91
2022/07/30 04:33:45;;;;;;;13.85;9.23;;;14.70;99.90;;;-144.05;80.69;125687.94;4962810;29;20031;-86
2022/07/30 04:36:11;;;;;;;15.13;10.60;;;14.70;99.90;;;-144.05;80.65;125687.94;4974846;28;20034;-89
2022/07/30 04:38:37;;;;;;;13.50;9.68;;;14.80;99.90;;;-144.05;80.47;125687.94;4975835;28;20028;-89
2022/07/30 04:41:03;;;;;;;17.75;10.52;;;14.80;99.90;;;-144.05;80.91;125687.94;4976379;28;20027;-90
2022/07/30 04:43:29;;;;;;;17.30;11.95;;;14.80;99.90;;;-144.05;80.92;125687.94;4958886;29;20047;-90
2022/07/30 04:45:55;;;;;;;15.95;11.15;;;14.80;99.90;;;-144.05;81.21;125687.94;4959212;28;20035;-86
2022/07/30 04:48:21;;;;;;;16.50;9.85;;;14.80;99.90;;;-144.05;80.91;125687.94;4975439;28;20035;-86
2022/07/30 04:50:58;;;;;;;14.98;11.48;;;14.90;99.90;;;-144.05;80.96;125687.94;4974771;28;20031;-88
2022/07/30 04:53:27;;;;;;;13.82;10.13;;;14.90;99.90;;;-144.05;80.59;125687.94;4975268;28;20027;-89
2022/07/30 04:55:55;;;;;;;15.43;10.52;;;15.00;99.90;;;-144.05;80.66;125687.94;4959513;28;20027;-89
2022/07/30 04:58:27;;;;;;;18.33;11.70;;;15.10;99.90;;;-144.05;80.67;125687.94;4958068;29;20028;-88
2022/07/30 05:00:56;;;;;;;17.35;11.57;;;15.10;99.90;;;-144.05;80.96;125687.94;4975208;28;20122;-91
2022/07/30 05:03:24;;;;;;;16.70;11.13;;;15.10;99.90;;;-144.05;80.78;125687.94;4958958;28;20434;-89
2022/07/30 05:05:52;;;;;;;17.67;12.23;;;15.20;99.90;;;-144.05;80.79;125687.94;4978220;28;20051;-88
2022/07/30 05:08:19;;;;;;;16.25;11.18;;;15.30;99.90;;;-144.05;80.53;125687.94;4961756;29;20081;-87
2022/07/30 05:10:45;;;;;;;17.17;11.18;;;15.40;99.90;;;-144.05;80.40;125687.94;4961913;29;20050;-88
2022/07/30 05:13:13;;;;;;;14.38;10.93;;;15.40;99.90;;;-144.05;80.32;125687.94;4962277;29;20035;-88
2022/07/30 05:15:40;;;;;;;20.75;12.32;;;15.60;99.90;;;-144.05;80.25;125687.94;4960752;29;20035;-90
2022/07/30 05:18:07;;;;;;;17.45;11.07;;;15.80;99.90;;;-144.05;79.72;125687.94;4961543;29;20031;-88
2022/07/30 05:20:33;;;;;;;14.75;11.63;;;15.90;99.90;;;-144.05;79.49;125687.94;4960227;29;20031;-87
2022/07/30 05:22:59;;;;;;;16.80;12.05;;;16.10;99.90;;;-144.05;78.98;125687.94;4961261;29;20019;-87
2022/07/30 05:25:26;;;;;;;24.90;11.75;;;16.20;99.90;;;-144.05;78.53;125687.94;4960905;28;20038;-88
2022/07/30 05:27:55;;;;;;;13.60;11.27;;;16.40;99.90;;;-144.05;77.78;125687.94;4960617;29;20035;-88
2022/07/30 05:30:22;;;;;;;17.10;12.10;;;16.50;99.90;;;-144.05;77.01;125687.94;4990297;28;20042;-89
2022/07/30 05:32:47;;;;;;;16.80;11.93;;;16.60;99.90;;;-144.05;76.77;125687.94;4966844;29;20027;-88
2022/07/30 05:35:14;;;;;;;14.50;11.73;;;16.80;99.90;;;-144.05;75.97;125687.94;4965276;29;20090;-89
2022/07/30 05:37:40;;;;;;;17.45;11.98;;;17.00;99.90;;;-144.05;75.09;125687.94;4964471;28;20054;-90
2022/07/30 05:40:08;;;;;;;24.70;12.27;;;17.00;99.90;;;-144.05;75.27;125687.94;4965197;29;20039;-88
2022/07/30 05:42:34;;;;;;;18.58;12.43;;;17.10;99.90;;;-144.05;74.46;125687.94;4967922;29;20032;-89
2022/07/30 05:45:00;;;;;;;19.85;11.13;;;17.30;99.90;;;-144.05;74.00;125687.94;4984960;28;20066;-91
2022/07/30 05:47:28;;;;;;;18.20;11.25;;;17.50;99.90;;;-144.05;72.88;125687.94;4989622;28;20035;-91
2022/07/30 05:49:53;;;;;;;15.27;11.20;;;17.70;99.90;;;-144.05;72.24;125687.94;4978010;29;20036;-88
2022/07/30 05:52:19;;;;;;;16.05;11.82;;;17.90;99.90;;;-144.05;70.85;125687.94;4978348;29;20026;-88
2022/07/30 05:54:45;;;;;;;16.73;11.20;;;18.00;99.90;;;-144.05;70.67;125687.94;4968097;28;20035;-88
2022/07/30 05:57:11;;;;;;;16.45;12.30;;;18.20;99.90;;;-144.05;69.89;125687.94;4977766;28;20101;-87
2022/07/30 05:59:37;;;;;;;18.52;12.35;;;18.30;99.90;;;-144.05;69.19;125687.94;4977821;28;20098;-89
2022/07/30 06:02:05;;;;;;;19.60;11.73;;;18.50;99.90;;;-144.05;69.30;125687.94;4961823;29;20422;-89
2022/07/30 06:04:31;;;;;;;19.13;10.45;;;18.60;99.90;;;-144.05;68.64;125687.94;4962170;28;20031;-87
2022/07/30 06:06:57;;;;;;;18.10;12.70;;;18.90;99.90;;;-144.05;67.24;125687.94;4961826;29;20031;-89
2022/07/30 06:09:45;;;;;;;16.42;11.60;;;19.00;99.90;;;-144.05;66.80;125687.94;4962099;29;20041;-90
2022/07/30 06:12:11;;;;;;;18.02;12.77;;;19.10;99.90;;;-144.05;66.33;125687.94;4977785;28;20343;-87
2022/07/30 06:14:37;;;;;;;16.67;10.75;;;19.20;99.90;;;-144.05;65.70;125687.94;4977768;28;20031;-88
2022/07/30 06:17:03;;;;;;;18.40;13.05;;;19.30;99.90;;;-144.05;65.74;125687.94;4961360;29;20065;-87
2022/07/30 06:19:29;;;;;;;19.73;12.25;;;19.40;99.90;;;-144.05;64.68;125687.94;4961250;29;20506;-88
2022/07/30 06:21:55;;;;;;;21.63;13.38;;;19.60;99.90;;;-144.05;64.50;125687.94;4977603;28;20420;-91
2022/07/30 06:24:21;;;;;;;25.23;13.68;;;19.80;99.90;;;-144.05;62.96;125687.94;4977784;28;20059;-88
2022/07/30 06:26:48;;;;;;;14.00;10.45;;;19.90;99.90;;;-144.05;62.91;125687.94;4960606;28;20130;-88
2022/07/30 06:29:14;;;;;;;17.80;12.85;;;20.10;99.90;;;-144.05;60.88;125687.94;4961619;29;20330;-90
2022/07/30 06:31:40;;;;;;;32.88;13.57;;;20.30;99.90;;;-144.05;61.47;125687.94;4960681;29;20070;-88
2022/07/30 06:34:06;;;;;;;21.73;13.57;;;20.40;99.90;;;-144.05;60.87;125687.94;4961402;29;20032;-87
2022/07/30 06:36:32;;;;;;;14.48;11.57;;;20.50;99.90;;;-144.05;60.38;125687.94;4962781;29;20122;-88
2022/07/30 06:38:58;;;;;;;20.38;13.60;;;20.70;99.90;;;-144.05;59.17;125687.94;4965056;28;20552;-90
2022/07/30 06:41:24;;;;;;;19.67;12.95;;;20.90;99.90;;;-144.05;59.33;125687.94;4963420;29;20038;-89
2022/07/30 06:43:50;;;;;;;19.10;11.63;;;21.00;99.90;;;-144.05;59.32;125687.94;4962998;29;20404;-89
2022/07/30 06:46:16;;;;;;;21.67;12.38;;;21.30;99.90;;;-144.05;58.36;125687.94;4964887;28;20036;-90
2022/07/30 06:48:42;;;;;;;19.33;12.30;;;21.60;99.90;;;-144.05;57.20;125687.94;4965672;29;20232;-92
2022/07/30 06:51:08;;;;;;;22.42;12.40;;;21.90;99.90;;;-144.05;56.68;125687.94;4964682;29;20027;-89
2022/07/30 06:53:34;;;;;;;20.90;13.60;;;22.10;99.90;;;-144.05;55.64;125687.94;4960720;29;20034;-90
2022/07/30 06:56:00;;;;;;;21.83;12.70;;;22.30;99.90;;;-144.05;55.42;125687.94;4977514;28;20099;-89
2022/07/30 06:58:27;;;;;;;23.50;14.55;;;22.50;99.90;;;-144.05;54.45;125687.94;4976673;28;20027;-90
2022/07/30 07:00:53;;;;;;;23.02;15.77;;;22.70;99.90;;;-144.05;53.82;125687.94;4960432;29;20035;-89
2022/07/30 07:03:19;;;;;;;27.52;15.30;;;22.60;99.90;;;-144.05;54.18;125687.94;4959782;29;20078;-88
2022/07/30 07:05:45;;;;;;;24.30;16.65;;;22.70;99.90;;;-144.05;53.77;125687.94;4961470;29;20038;-90
2022/07/30 07:08:10;;;;;;;33.53;20.83;;;22.80;99.90;;;-144.05;53.42;125687.94;4976618;28;20023;-87
2022/07/30 07:10:37;;;;;;;37.65;23.58;;;22.70;99.90;;;-144.05;53.98;125687.94;4960877;29;20027;-87
2022/07/30 07:13:03;;;;;;;43.55;28.15;;;22.40;99.90;;;-144.05;53.70;125687.94;4959931;29;20031;-87
2022/07/30 07:15:29;;;;;;;44.28;28.65;;;22.40;99.90;;;-144.05;54.24;125687.94;4960567;29;20102;-88
2022/07/30 07:17:55;;;;;;;43.42;28.13;;;22.30;99.90;;;-144.05;54.07;125687.94;4960178;29;20038;-86
2022/07/30 07:20:25;;;;;;;51.25;35.05;;;22.50;99.90;;;-144.05;53.06;125687.94;4960216;29;20038;-88
2022/07/30 07:22:50;;;;;;;53.17;33.00;;;22.60;99.90;;;-144.05;52.73;125687.94;4958656;29;20031;-90
2022/07/30 07:25:17;;;;;;;53.88;33.88;;;22.70;99.90;;;-144.05;53.21;125687.94;4958843;28;20043;-88
2022/07/30 07:27:43;;;;;;;52.60;35.15;;;22.60;99.90;;;-144.05;52.48;125687.94;4958440;29;20035;-88
2022/07/30 07:30:09;;;;;;;53.58;36.53;;;22.80;99.90;;;-144.05;52.80;125687.94;4958418;29;20445;-87
2022/07/30 07:32:39;;;;;;;59.58;37.90;;;22.60;99.90;;;-144.05;52.87;125687.94;4959129;29;20023;-87
2022/07/30 07:35:06;;;;;;;54.47;37.47;;;22.40;99.90;;;-144.05;53.74;125687.94;4960078;28;20031;-89
2022/07/30 07:37:32;;;;;;;64.25;38.13;;;22.20;99.90;;;-144.05;54.48;125687.94;4958948;29;20027;-87
2022/07/30 07:39:58;;;;;;;59.35;37.85;;;22.10;99.90;;;-144.05;54.75;125687.94;4958727;29;20031;-87
2022/07/30 07:42:24;;;;;;;56.65;37.13;;;22.00;99.90;;;-144.05;54.80;125687.94;4961785;29;20042;-88
2022/07/30 07:44:50;;;;;;;56.53;37.08;;;21.90;99.90;;;-144.05;54.36;125687.94;4973341;28;20051;-88
2022/07/30 07:47:16;;;;;;;54.72;37.40;;;21.90;99.90;;;-144.05;55.10;125687.94;4967099;28;20044;-89
2022/07/30 07:49:43;;;;;;;57.85;38.08;;;21.80;99.90;;;-144.05;55.24;125687.94;4942274;29;20054;-88
2022/07/30 07:52:09;;;;;;;51.55;35.85;;;21.70;99.90;;;-144.05;55.21;125687.94;4957646;29;20079;-90
2022/07/30 07:54:37;;;;;;;57.13;36.78;;;21.80;99.90;;;-144.05;55.26;125687.94;4958079;28;20027;-89
2022/07/30 07:57:06;;;;;;;54.22;36.83;;;21.80;99.90;;;-144.05;55.14;125687.94;4958042;28;20225;-88
2022/07/30 07:59:33;;;;;;;58.92;39.75;;;22.00;99.90;;;-144.05;54.56;125687.94;4958090;29;20234;-87
2022/07/30 08:02:00;;;;;;;54.88;38.40;;;21.90;99.90;;;-144.05;54.63;125687.94;4943377;29;20039;-88
2022/07/30 08:04:26;;;;;;;55.03;37.25;;;21.90;99.90;;;-144.05;53.93;125687.94;4942105;29;20031;-87
2022/07/30 08:06:52;;;;;;;58.60;38.28;;;22.40;99.90;;;-144.05;51.93;125687.94;4957982;29;20129;-89
2022/07/30 08:09:18;;;;;;;47.85;34.28;;;22.90;99.90;;;-144.05;50.51;125687.94;4956861;29;20035;-89
2022/07/30 08:11:45;;;;;;;48.85;34.50;;;23.20;99.90;;;-144.05;50.72;125687.94;4958786;28;20027;-90
2022/07/30 08:14:11;;;;;;;46.47;32.85;;;23.20;99.90;;;-144.05;49.66;125687.94;4957825;29;20032;-89
2022/07/30 08:16:37;;;;;;;45.30;33.63;;;23.40;99.90;;;-144.05;50.13;125687.94;4942699;29;20070;-90
2022/07/30 08:19:03;;;;;;;44.20;31.42;;;23.60;99.90;;;-144.05;49.72;125687.94;4957608;29;20062;-90
2022/07/30 08:21:30;;;;;;;45.45;32.60;;;23.70;99.90;;;-144.05;49.90;125687.94;4957979;29;20091;-90
2022/07/30 08:23:56;;;;;;;44.97;31.63;;;23.60;99.90;;;-144.05;49.94;125687.94;4958021;29;20031;-91
2022/07/30 08:26:22;;;;;;;36.97;28.30;;;23.50;99.90;;;-144.05;49.74;125687.94;4941182;29;20121;-89
2022/07/30 08:28:48;;;;;;;37.67;30.02;;;23.60;99.90;;;-144.05;48.18;125687.94;4941610;29;20376;-89
2022/07/30 08:31:13;;;;;;;41.70;29.65;;;23.80;99.90;;;-144.05;48.87;125687.94;4957826;29;20027;-89
2022/07/30 08:33:39;;;;;;;38.13;30.23;;;23.60;99.90;;;-144.05;49.45;125687.94;4958937;29;20023;-88
2022/07/30 08:36:06;;;;;;;37.25;28.38;;;23.50;99.90;;;-144.05;48.61;125687.94;4958233;28;20027;-91
2022/07/30 08:38:32;;;;;;;35.63;26.65;;;23.50;99.90;;;-144.05;48.46;125687.94;4957567;28;20031;-89
2022/07/30 08:40:58;;;;;;;31.83;23.27;;;23.60;99.90;;;-144.05;48.34;125687.94;4958603;29;20038;-89
2022/07/30 08:43:25;;;;;;;35.42;24.38;;;23.50;99.90;;;-144.05;47.84;125687.94;4960603;29;20070;-88
2022/07/30 08:45:55;;;;;;;37.38;24.67;;;23.50;99.90;;;-144.05;47.98;125687.94;4963599;28;20031;-88
2022/07/30 08:48:24;;;;;;;30.70;24.27;;;23.60;99.90;;;-144.05;46.79;125687.94;4972145;29;20039;-88
2022/07/30 08:50:52;;;;;;;26.65;21.05;;;24.00;99.90;;;-144.05;46.47;125687.94;4971709;29;20050;-91
2022/07/30 08:53:26;;;;;;;26.75;20.08;;;24.30;99.90;;;-144.05;45.88;125687.94;4971118;28;20087;-91
2022/07/30 08:55:53;;;;;;;23.35;19.50;;;24.30;99.90;;;-144.05;45.86;125687.94;4946867;29;20058;-88
2022/07/30 08:58:34;;;;;;;26.15;20.05;;;24.40;99.90;;;-144.05;45.99;125687.94;4961867;29;20051;-89
2022/07/30 09:01:06;;;;;;;26.63;18.25;;;24.30;99.90;;;-144.05;45.88;125687.94;4943808;29;20027;-89
2022/07/30 09:03:36;;;;;;;28.30;20.00;;;24.60;99.90;;;-144.05;44.77;125687.94;4959698;29;20023;-90
2022/07/30 09:06:04;;;;;;;25.33;18.23;;;25.00;99.90;;;-144.05;44.01;125687.94;4960415;28;20065;-89
2022/07/30 09:08:31;;;;;;;28.38;21.25;;;25.40;99.90;;;-144.05;43.02;125687.94;4961172;29;20027;-91
2022/07/30 09:10:58;;;;;;;26.58;20.35;;;25.60;99.90;;;-144.05;43.46;125687.94;4973451;28;20030;-92
2022/07/30 09:13:54;;;;;;;25.30;17.67;;;25.40;99.90;;;-144.05;43.48;125687.94;4973850;28;20043;-91
2022/07/30 09:16:25;;;;;;;28.17;18.00;;;25.60;99.90;;;-144.05;42.82;125687.94;4941845;29;20049;-91
2022/07/30 09:18:54;;;;;;;26.90;19.88;;;25.80;99.90;;;-144.05;42.30;125687.94;4946396;29;20055;-90
2022/07/30 09:21:31;;;;;;;26.90;19.55;;;25.70;99.90;;;-144.05;42.10;125687.94;4959774;29;20065;-91
2022/07/30 09:24:10;;;;;;;29.85;20.90;;;25.70;99.90;;;-144.05;42.19;125687.94;4964305;28;20031;-92
2022/07/30 09:27:11;;;;;;;23.92;19.30;;;25.90;99.90;;;-144.05;41.11;125687.94;4942940;29;20027;-90
2022/07/30 09:29:58;;;;;;;26.40;19.40;;;26.20;99.90;;;-144.05;41.08;125687.94;4920293;29;20470;-90
2022/07/30 09:32:26;;;;;;;27.42;19.67;;;26.30;99.90;;;-144.05;40.89;125687.94;4939602;29;20094;-89
2022/07/30 09:35:02;;;;;;;;;;;;;;;;;;;;;
2022/07/30 09:37:29;;;;;;;28.40;21.20;;;26.20;99.90;;;-144.05;41.23;125687.94;4958783;29;20115;-90
2022/07/30 09:40:19;;;;;;;23.38;17.08;;;26.10;99.90;;;-144.05;40.14;125687.94;4956969;29;20050;-89
2022/07/30 09:42:45;;;;;;;23.02;16.42;;;26.20;99.90;;;-144.05;39.75;125687.94;4956640;29;20102;-88
2022/07/30 09:45:14;;;;;;;25.23;17.52;;;26.30;99.90;;;-144.05;40.03;125687.94;4960487;28;20027;-88
2022/07/30 09:47:47;;;;;;;24.77;15.05;;;26.50;99.90;;;-144.05;38.85;125687.94;4957585;29;20035;-88
2022/07/30 09:50:18;;;;;;;19.17;13.65;;;26.50;99.90;;;-144.05;38.93;125687.94;4960314;28;20493;-90
2022/07/30 09:52:50;;;;;;;19.05;14.95;;;26.50;99.90;;;-144.05;37.84;125687.94;4960403;29;20035;-87
2022/07/30 09:55:38;;;;;;;16.95;13.82;;;26.70;99.90;;;-144.05;38.61;125687.94;4960539;28;20110;-87
2022/07/30 09:58:06;;;;;;;16.48;13.05;;;26.50;99.90;;;-144.05;38.79;125687.94;4963164;29;20063;-89
2022/07/30 10:00:36;;;;;;;13.40;10.13;;;26.50;99.90;;;-144.05;38.61;125687.94;4969129;29;20042;-88
2022/07/30 10:03:25;;;;;;;13.18;9.82;;;26.60;99.90;;;-144.05;37.51;125687.94;4964181;29;20067;-87